Time;durP1;ratioP1;P1;durP2;ratioP2;P2;SDS_P1;SDS_P2;PMS_P1;PMS_P2;Temp;Humidity;BMP_temperature;BMP_pressure;BME280_temperature;BME280_humidity;BME280_pressure;Samples;Min_cycle;Max_cycle;Signal;HPM_P1;HPM_P2
2022/08/22 00:01:52;;;;;;;10.82;2.53;;;;;;;18.62;59.67;99306.63;5054621;28;20079;-57
2022/08/22 00:04:37;;;;;;;5.78;2.38;;;;;;;18.49;59.62;99308.16;5053194;28;20179;-56
2022/08/22 00:07:17;;;;;;;8.15;2.30;;;;;;;18.31;60.69;99312.47;5052538;28;20109;-56
2022/08/22 00:10:00;;;;;;;5.93;2.20;;;;;;;18.24;61.20;99303.88;5067174;28;20039;-57
2022/08/22 00:12:40;;;;;;;10.43;2.65;;;;;;;18.23;61.38;99300.38;5061185;28;20497;-57
2022/08/22 00:15:09;;;;;;;8.98;2.90;;;;;;;18.18;61.40;99303.16;5067272;28;20040;-57
2022/08/22 00:18:09;;;;;;;7.22;2.60;;;;;;;18.29;60.37;99298.38;5057352;28;20044;-57
2022/08/22 00:20:40;;;;;;;8.50;2.53;;;;;;;18.24;60.45;99296.53;5055524;28;20040;-57
2022/08/22 00:23:16;;;;;;;12.43;2.50;;;;;;;18.20;61.02;99298.25;5050971;28;20028;-57
2022/08/22 00:25:53;;;;;;;9.65;2.30;;;;;;;18.17;60.46;99289.88;5066934;28;20037;-57
2022/08/22 00:28:30;;;;;;;9.13;2.80;;;;;;;18.10;60.95;99295.66;5064980;28;20032;-56
2022/08/22 00:31:12;;;;;;;11.07;2.78;;;;;;;18.16;61.04;99291.78;5064727;28;20020;-56
2022/08/22 00:33:49;;;;;;;7.75;2.60;;;;;;;18.10;61.00;99290.25;5057253;28;20025;-56
2022/08/22 00:36:36;;;;;;;9.38;2.85;;;;;;;18.07;61.60;99290.81;5073519;28;20112;-57
2022/08/22 00:39:24;;;;;;;8.48;2.50;;;;;;;18.00;61.17;99290.38;5057750;28;20063;-57
2022/08/22 00:42:11;;;;;;;10.88;3.10;;;;;;;17.89;61.60;99290.47;5061106;28;20020;-57
2022/08/22 00:44:48;;;;;;;8.77;2.53;;;;;;;17.72;62.74;99287.38;5067717;28;20436;-56
2022/08/22 00:47:28;;;;;;;9.65;2.58;;;;;;;17.74;62.35;99285.19;5056024;28;20037;-57
2022/08/22 00:50:02;;;;;;;8.05;2.70;;;;;;;17.59;62.72;99282.66;5069410;28;20021;-57
2022/08/22 00:52:46;;;;;;;10.70;2.67;;;;;;;17.58;62.89;99291.88;5068101;28;20041;-56
2022/08/22 00:55:33;;;;;;;15.52;2.67;;;;;;;17.43;63.01;99293.66;5101151;28;20056;-57
2022/08/22 00:58:23;;;;;;;8.73;2.70;;;;;;;17.26;64.11;99287.84;5069282;28;20032;-57
2022/08/22 01:00:55;;;;;;;11.05;2.42;;;;;;;17.21;65.74;99293.31;5065224;28;20139;-56
2022/08/22 01:03:39;;;;;;;8.77;2.70;;;;;;;16.92;65.93;99288.66;5068297;28;20391;-57
2022/08/22 01:06:24;;;;;;;8.05;2.40;;;;;;;17.02;65.50;99291.31;5057507;28;20488;-56
2022/08/22 01:08:58;;;;;;;8.10;2.60;;;;;;;17.14;64.98;99284.72;5054806;28;20533;-56
2022/08/22 01:11:42;;;;;;;6.65;2.53;;;;;;;17.09;65.75;99282.06;5052398;28;20372;-56
2022/08/22 01:14:37;;;;;;;10.15;2.65;;;;;;;16.94;65.33;99286.50;5064187;28;20421;-56
2022/08/22 01:17:28;;;;;;;9.30;2.58;;;;;;;16.93;65.53;99276.75;5093545;28;20037;-57
2022/08/22 01:20:21;;;;;;;9.82;2.70;;;;;;;16.51;66.83;99282.72;5068690;28;20043;-56
2022/08/22 01:23:04;;;;;;;6.05;2.53;;;;;;;16.55;68.17;99276.47;5057800;28;20506;-57
2022/08/22 01:25:54;;;;;;;11.55;2.67;;;;;;;16.58;66.74;99267.78;5058916;28;20033;-56
2022/08/22 01:28:46;;;;;;;7.47;2.75;;;;;;;16.77;66.69;99272.50;5052908;28;20044;-56
2022/08/22 01:31:47;;;;;;;9.95;2.65;;;;;;;16.85;65.88;99266.56;5051204;28;20038;-56
2022/08/22 01:34:57;;;;;;;9.35;2.70;;;;;;;16.84;66.28;99264.13;5055753;28;20040;-57
2022/08/22 01:37:44;;;;;;;8.95;2.92;;;;;;;16.87;66.11;99264.34;5058242;28;20048;-56
2022/08/22 01:40:31;;;;;;;8.32;2.75;;;;;;;16.77;66.24;99269.81;5069208;28;20032;-56
2022/08/22 01:43:05;;;;;;;9.88;2.72;;;;;;;16.81;66.68;99268.19;5065913;28;20024;-57
2022/08/22 01:45:49;;;;;;;10.63;2.80;;;;;;;16.79;66.71;99267.66;5062796;28;20035;-56
2022/08/22 01:48:26;;;;;;;6.63;2.80;;;;;;;16.49;67.40;99272.16;5086222;28;20025;-57
2022/08/22 01:51:12;;;;;;;8.98;2.65;;;;;;;16.65;68.71;99269.34;5072369;28;20043;-57
2022/08/22 01:53:49;;;;;;;10.10;2.72;;;;;;;16.56;67.03;99264.53;5068779;28;20040;-57
2022/08/22 01:56:20;;;;;;;8.40;2.80;;;;;;;16.66;68.33;99257.47;5072350;28;20029;-56
2022/08/22 01:59:07;;;;;;;10.02;3.28;;;;;;;16.46;68.75;99261.09;5072372;28;20037;-57
2022/08/22 02:01:44;;;;;;;8.68;2.90;;;;;;;16.46;67.51;99261.91;5096786;28;20444;-56
2022/08/22 02:04:15;;;;;;;7.60;2.72;;;;;;;16.69;67.43;99262.31;5060150;28;20456;-57
2022/08/22 02:06:43;;;;;;;;;;;;;;;16.49;67.28;99258.63;5068567;28;20162;-56
2022/08/22 02:09:35;;;;;;;9.15;3.15;;;;;;;16.34;67.76;99256.03;5064564;28;19912;-57
2022/08/22 02:12:34;;;;;;;11.43;3.05;;;;;;;16.33;67.88;99265.25;5071004;28;20444;-56
2022/08/22 02:15:05;;;;;;;10.83;3.20;;;;;;;16.30;67.80;99261.19;5073704;28;20410;-56
2022/08/22 02:17:33;;;;;;;16.88;3.33;;;;;;;16.25;67.87;99263.94;5064986;28;20660;-57
2022/08/22 02:20:01;;;;;;;9.68;3.00;;;;;;;16.12;68.26;99264.53;5095779;28;20021;-57
2022/08/22 02:22:40;;;;;;;8.40;2.92;;;;;;;16.29;67.78;99264.19;5065071;28;20033;-56
2022/08/22 02:25:16;;;;;;;9.32;3.42;;;;;;;16.35;67.72;99273.91;5058246;28;20028;-56
2022/08/22 02:27:53;;;;;;;8.93;2.95;;;;;;;16.18;67.98;99266.13;5071098;28;20055;-57
2022/08/22 02:30:29;;;;;;;10.50;3.20;;;;;;;15.77;69.66;99263.59;5071775;28;20028;-56
2022/08/22 02:33:07;;;;;;;16.67;3.13;;;;;;;15.71;71.25;99262.00;5053186;28;20029;-57
2022/08/22 02:35:45;;;;;;;10.65;2.90;;;;;;;15.61;71.00;99249.31;5051358;28;20025;-56
2022/08/22 02:38:23;;;;;;;8.85;3.03;;;;;;;15.28;72.06;99256.94;5061507;28;20028;-56
2022/08/22 02:41:16;;;;;;;15.15;3.40;;;;;;;15.68;71.34;99243.63;5060404;28;20402;-56
2022/08/22 02:43:58;;;;;;;15.52;4.25;;;;;;;15.90;69.85;99249.50;5067459;28;20033;-57
2022/08/22 02:46:45;;;;;;;9.43;3.20;;;;;;;15.98;68.84;99252.72;5053550;28;20533;-57
2022/08/22 02:49:26;;;;;;;12.32;3.53;;;;;;;16.05;68.81;99251.34;5059840;28;20040;-56
2022/08/22 02:52:02;;;;;;;9.77;3.33;;;;;;;15.98;68.55;99248.13;5065613;28;20016;-56
2022/08/22 02:54:55;;;;;;;9.60;3.22;;;;;;;15.87;69.28;99250.03;5058924;28;20443;-56
2022/08/22 02:57:26;;;;;;;10.75;3.20;;;;;;;15.81;69.15;99248.44;5067523;28;20039;-56
2022/08/22 03:00:20;;;;;;;17.63;3.78;;;;;;;15.72;69.85;99240.13;5066355;28;20127;-57
2022/08/22 03:02:55;;;;;;;19.83;3.60;;;;;;;15.82;69.37;99243.84;5069244;28;20025;-56
2022/08/22 03:05:22;;;;;;;12.05;3.65;;;;;;;15.76;69.70;99239.56;5058466;28;20048;-56
2022/08/22 03:07:55;;;;;;;12.93;4.03;;;;;;;15.76;69.59;99229.56;5060410;28;20028;-56
2022/08/22 03:10:44;;;;;;;9.63;3.58;;;;;;;15.78;70.59;99232.00;5068638;28;20525;-56
2022/08/22 03:13:29;;;;;;;11.50;3.65;;;;;;;15.80;70.01;99230.63;5065191;28;20028;-57
2022/08/22 03:16:17;;;;;;;11.00;3.25;;;;;;;15.85;70.78;99227.06;5053702;28;20025;-57
2022/08/22 03:19:11;;;;;;;11.63;3.55;;;;;;;15.62;70.42;99233.91;5064631;28;20096;-57
2022/08/22 03:21:43;;;;;;;15.10;3.58;;;;;;;15.32;70.42;99231.03;5091303;28;20020;-57
2022/08/22 03:24:24;;;;;;;8.88;3.30;;;;;;;15.20;72.38;99232.38;5053043;28;20455;-57
2022/08/22 03:27:19;;;;;;;10.55;3.53;;;;;;;15.04;72.55;99235.09;5074278;28;20095;-56
2022/08/22 03:29:57;;;;;;;9.38;3.60;;;;;;;14.84;73.29;99230.53;5073891;28;20036;-57
2022/08/22 03:32:24;;;;;;;10.75;3.50;;;;;;;14.42;75.30;99231.53;5086981;28;20012;-56
2022/08/22 03:35:01;;;;;;;8.98;3.80;;;;;;;14.56;74.83;99231.06;5071698;28;20025;-57
2022/08/22 03:37:39;;;;;;;10.70;3.70;;;;;;;14.80;75.28;99226.75;5054913;28;20025;-56
2022/08/22 03:40:26;;;;;;;11.73;3.80;;;;;;;15.09;73.59;99226.19;5064828;28;20024;-57
2022/08/22 03:43:27;;;;;;;15.57;4.53;;;;;;;15.24;73.58;99218.06;5065186;28;20024;-57
2022/08/22 03:46:08;;;;;;;13.43;4.07;;;;;;;15.30;72.90;99216.97;5067815;28;20104;-56
2022/08/22 03:48:59;;;;;;;11.70;4.40;;;;;;;15.27;72.31;99219.41;5061289;28;20033;-56
2022/08/22 03:51:42;;;;;;;8.48;3.70;;;;;;;15.45;72.70;99220.69;5054912;28;20036;-56
2022/08/22 03:54:47;;;;;;;11.35;4.03;;;;;;;15.60;71.88;99223.38;5061377;28;20035;-55
2022/08/22 03:57:56;;;;;;;10.63;4.25;;;;;;;15.31;72.13;99215.09;5040903;28;20047;-56
2022/08/22 04:00:28;;;;;;;11.20;4.03;;;;;;;15.34;71.86;99219.13;5069653;28;20340;-56
2022/08/22 04:03:15;;;;;;;10.68;3.97;;;;;;;15.50;71.92;99226.09;5060032;28;20025;-56
2022/08/22 04:06:05;;;;;;;15.55;4.85;;;;;;;15.37;72.22;99223.97;5065548;28;20184;-56
2022/08/22 04:08:40;;;;;;;16.40;4.30;;;;;;;15.25;73.25;99221.56;5066320;28;20093;-56
2022/08/22 04:11:38;;;;;;;16.33;5.15;;;;;;;15.31;74.71;99223.19;5061441;28;20028;-55
2022/08/22 04:14:06;;;;;;;13.20;4.40;;;;;;;15.33;74.73;99223.72;5054273;28;20039;-56
2022/08/22 04:16:45;;;;;;;12.25;4.50;;;;;;;15.10;73.02;99228.63;5069084;28;20036;-56
2022/08/22 04:19:28;;;;;;;11.05;3.65;;;;;;;15.00;74.59;99231.34;5063563;28;20037;-56
2022/08/22 04:22:16;;;;;;;11.45;4.28;;;;;;;14.64;74.98;99230.53;5057839;28;20033;-56
2022/08/22 04:24:42;;;;;;;12.48;4.70;;;;;;;14.61;75.46;99237.25;5093842;28;20124;-56
2022/08/22 04:27:21;;;;;;;13.02;4.65;;;;;;;14.66;76.37;99233.75;5053369;28;20060;-56
2022/08/22 04:29:58;;;;;;;15.75;4.10;;;;;;;14.82;76.36;99229.97;5067987;28;20032;-56
2022/08/22 04:32:33;;;;;;;18.10;5.90;;;;;;;14.63;74.45;99224.31;5048873;28;20459;-56
2022/08/22 04:35:05;;;;;;;14.88;5.03;;;;;;;14.52;76.14;99233.44;5052415;28;20040;-56
2022/08/22 04:37:52;;;;;;;15.88;5.47;;;;;;;14.83;75.69;99226.22;5087340;28;20074;-55
2022/08/22 04:40:54;;;;;;;24.65;5.00;;;;;;;14.98;74.71;99230.00;5098267;28;20055;-56
2022/08/22 04:43:24;;;;;;;15.88;4.55;;;;;;;15.11;73.11;99226.72;5053239;28;20036;-56
2022/08/22 04:45:54;;;;;;;13.80;4.65;;;;;;;15.32;71.80;99224.78;5092619;28;20036;-56
2022/08/22 04:48:24;;;;;;;13.45;4.63;;;;;;;15.56;71.79;99226.91;5057148;28;20111;-56
2022/08/22 04:50:53;;;;;;;;;;;;;;;15.44;70.79;99222.59;5069013;28;20070;-56
2022/08/22 04:53:38;;;;;;;12.00;4.63;;;;;;;15.17;72.46;99228.31;5066123;28;20361;-55
2022/08/22 04:56:57;;;;;;;10.57;4.30;;;;;;;14.96;72.26;99232.16;5057438;28;20021;-55
2022/08/22 04:59:22;;;;;;;12.02;5.03;;;;;;;14.96;73.96;99232.94;5040129;28;20041;-56
2022/08/22 05:01:57;;;;;;;18.30;5.03;;;;;;;15.76;72.18;99234.16;5056481;28;20430;-56
2022/08/22 05:04:28;;;;;;;12.75;4.82;;;;;;;17.55;66.04;99224.72;5057727;28;20376;-56
2022/08/22 05:07:12;;;;;;;17.30;5.30;;;;;;;17.69;64.25;99241.88;5066970;28;20125;-56
2022/08/22 05:09:41;;;;;;;11.82;4.40;;;;;;;18.26;62.26;99242.81;5065164;28;20032;-56
2022/08/22 05:12:10;;;;;;;19.75;4.60;;;;;;;18.73;60.69;99243.75;5098903;28;20055;-57
2022/08/22 05:14:39;;;;;;;15.48;4.40;;;;;;;19.10;57.75;99258.38;5053139;28;20063;-57
2022/08/22 05:17:06;;;;;;;16.45;4.93;;;;;;;19.90;55.87;99247.41;5066976;28;20016;-56
2022/08/22 05:19:34;;;;;;;14.05;4.40;;;;;;;19.43;56.95;99252.09;5067725;28;20467;-56
2022/08/22 05:21:59;;;;;;;18.65;4.65;;;;;;;20.67;55.70;99250.06;5069803;28;20043;-56
2022/08/22 05:24:46;;;;;;;16.20;4.80;;;;;;;21.86;52.17;99251.34;5055369;28;20032;-57
2022/08/22 05:27:20;;;;;;;21.20;4.53;;;;;;;22.75;49.82;99253.91;5072028;28;20031;-56
2022/08/22 05:29:47;;;;;;;11.13;4.03;;;;;;;22.00;49.74;99256.69;5106167;28;20043;-56
2022/08/22 05:32:50;;;;;;;20.77;4.65;;;;;;;21.64;49.19;99249.53;5065577;28;20033;-57
2022/08/22 05:35:17;;;;;;;12.10;4.82;;;;;;;21.82;49.19;99261.31;5053349;28;20463;-57
2022/08/22 05:37:48;;;;;;;13.80;5.00;;;;;;;22.12;48.81;99259.63;5053024;28;20503;-57
2022/08/22 05:40:19;;;;;;;20.45;4.97;;;;;;;23.36;46.77;99262.78;5060738;28;20032;-57
2022/08/22 05:42:44;;;;;;;11.75;4.78;;;;;;;23.81;44.56;99259.59;5057114;28;20090;-57
2022/08/22 05:45:10;;;;;;;14.73;5.45;;;;;;;23.18;46.10;99267.50;5056039;28;20527;-56
2022/08/22 05:47:38;;;;;;;12.25;4.95;;;;;;;23.88;44.42;99267.28;5068320;28;20025;-55
2022/08/22 05:50:14;;;;;;;19.50;5.15;;;;;;;23.97;44.41;99270.00;5064171;28;20031;-56
2022/08/22 05:52:58;;;;;;;16.63;4.75;;;;;;;23.99;44.36;99268.53;5061986;28;20033;-56
2022/08/22 05:55:43;;;;;;;20.50;4.60;;;;;;;24.28;43.44;99259.47;5060629;28;20036;-56
2022/08/22 05:58:51;;;;;;;19.25;5.45;;;;;;;24.92;42.42;99265.75;5056547;28;20161;-57
2022/08/22 06:01:50;;;;;;;21.75;5.20;;;;;;;24.87;43.14;99268.72;5064583;28;20120;-56
2022/08/22 06:04:30;;;;;;;15.85;5.00;;;;;;;25.93;40.65;99265.28;5066363;28;20060;-56
2022/08/22 06:07:01;;;;;;;16.52;5.50;;;;;;;25.41;41.59;99265.94;5067127;28;20100;-56
2022/08/22 06:09:45;;;;;;;15.70;4.65;;;;;;;25.65;41.46;99262.38;5078102;28;20367;-56
2022/08/22 06:12:15;;;;;;;18.33;4.72;;;;;;;25.86;41.14;99265.06;5063053;28;20115;-57
2022/08/22 06:15:17;;;;;;;18.55;5.22;;;;;;;25.82;41.56;99264.13;5054668;28;20060;-56
2022/08/22 06:17:49;;;;;;;16.65;4.45;;;;;;;26.10;40.83;99264.22;5066997;28;20025;-56
2022/08/22 06:20:20;;;;;;;19.80;4.93;;;;;;;26.87;39.41;99269.66;5051887;28;20479;-56
2022/08/22 06:22:51;;;;;;;25.48;5.25;;;;;;;27.08;39.16;99268.63;5068408;28;20418;-56
2022/08/22 06:25:34;;;;;;;19.88;5.10;;;;;;;26.34;40.30;99273.59;5069694;28;20273;-56
2022/08/22 06:28:02;;;;;;;29.83;4.97;;;;;;;26.56;40.32;99264.03;5045154;28;20052;-56
2022/08/22 06:30:28;;;;;;;47.88;6.07;;;;;;;26.96;39.39;99268.69;5079503;28;20021;-57
2022/08/22 06:32:56;;;;;;;41.00;6.25;;;;;;;27.17;39.44;99276.75;5095105;28;20033;-57
2022/08/22 06:35:28;;;;;;;36.35;5.35;;;;;;;26.80;39.85;99282.41;5084845;28;20025;-56
2022/08/22 06:37:56;;;;;;;35.90;5.97;;;;;;;27.74;38.40;99295.53;5062683;28;20610;-57
2022/08/22 06:40:21;;;;;;;42.35;5.65;;;;;;;28.01;37.64;99298.59;5064601;28;20487;-56
2022/08/22 06:42:49;;;;;;;72.28;7.70;;;;;;;28.29;36.92;99297.66;5086524;28;20029;-56
2022/08/22 06:45:15;;;;;;;101.75;9.77;;;;;;;28.21;36.91;99302.19;5066479;28;20031;-56
2022/08/22 06:48:06;;;;;;;99.20;8.73;;;;;;;27.65;37.99;99302.38;5071538;28;20028;-57
2022/08/22 06:50:33;;;;;;;92.68;8.90;;;;;;;27.51;37.69;99297.34;5059734;28;20041;-56
2022/08/22 06:53:20;;;;;;;93.53;9.70;;;;;;;27.97;37.45;99303.19;5053034;28;20023;-57
2022/08/22 06:55:57;;;;;;;83.32;8.82;;;;;;;27.70;38.11;99308.41;5068631;28;20166;-56
2022/08/22 06:58:26;;;;;;;110.18;9.57;;;;;;;26.38;39.82;99302.75;5056071;28;20033;-56
2022/08/22 07:00:54;;;;;;;77.15;9.43;;;;;;;24.93;42.86;99302.97;5056451;28;20025;-56
2022/08/22 07:03:25;;;;;;;86.00;8.32;;;;;;;24.05;44.53;99299.25;5052728;28;20127;-56
2022/08/22 07:05:52;;;;;;;86.57;9.45;;;;;;;23.36;45.81;99292.88;5053868;28;20041;-56
2022/08/22 07:08:18;;;;;;;89.85;9.02;;;;;;;23.41;46.53;99292.72;5050849;28;20024;-56
2022/08/22 07:10:55;;;;;;;71.13;7.97;;;;;;;25.80;42.02;99291.09;5058072;28;20104;-56
2022/08/22 07:13:20;;;;;;;67.80;8.02;;;;;;;27.14;39.23;99289.25;5084682;28;20113;-56
2022/08/22 07:15:52;;;;;;;62.83;8.25;;;;;;;28.30;37.58;99294.50;5055729;28;21338;-56
2022/08/22 07:18:19;;;;;;;67.38;7.60;;;;;;;28.01;37.45;99295.84;5067869;28;20033;-56
2022/08/22 07:20:51;;;;;;;55.20;7.60;;;;;;;28.97;35.21;99299.88;5062106;28;20370;-56
2022/08/22 07:23:39;;;;;;;61.70;7.32;;;;;;;27.72;37.27;99297.84;5066953;28;20052;-56
2022/08/22 07:26:23;;;;;;;55.10;6.75;;;;;;;27.68;38.01;99296.97;5061720;28;20127;-56
2022/08/22 07:28:52;;;;;;;50.00;6.30;;;;;;;27.65;37.81;99297.66;5071279;28;20040;-57
2022/08/22 07:31:36;;;;;;;35.70;5.72;;;;;;;28.27;36.51;99297.19;5068309;28;20017;-56
2022/08/22 07:34:31;;;;;;;19.35;4.15;;;;;;;26.92;37.32;99290.63;5063635;28;20123;-57
2022/08/22 07:37:05;;;;;;;16.33;3.60;;;;;;;26.62;37.90;99301.16;5067891;28;20060;-56
2022/08/22 07:39:40;;;;;;;32.67;5.35;;;;;;;27.01;37.80;99284.94;5091697;28;20379;-56
2022/08/22 07:42:11;;;;;;;40.35;4.80;;;;;;;27.80;36.74;99287.00;5064992;28;20119;-57
2022/08/22 07:45:01;;;;;;;21.30;4.45;;;;;;;27.44;37.38;99280.63;5070406;28;20028;-56
2022/08/22 07:47:40;;;;;;;33.70;4.90;;;;;;;27.20;37.97;99287.88;5055282;28;20020;-56
2022/08/22 07:50:07;;;;;;;28.48;5.15;;;;;;;26.82;38.35;99289.16;5066541;28;20309;-56
2022/08/22 07:52:39;;;;;;;39.55;5.18;;;;;;;27.08;37.50;99287.88;5053490;28;20147;-54
2022/08/22 07:55:23;;;;;;;38.65;5.38;;;;;;;25.59;39.92;99285.72;5092108;28;20024;-54
2022/08/22 07:57:53;;;;;;;28.35;5.05;;;;;;;26.68;38.52;99286.00;5070582;28;20039;-55
2022/08/22 08:00:19;;;;;;;24.33;4.32;;;;;;;26.58;38.53;99294.72;5068987;28;20024;-55
2022/08/22 08:02:52;;;;;;;23.10;3.78;;;;;;;26.17;38.79;99288.38;5048947;28;20475;-55
2022/08/22 08:05:18;;;;;;;15.43;3.58;;;;;;;25.74;38.91;99295.22;5061705;28;20056;-55
2022/08/22 08:07:44;;;;;;;10.82;3.55;;;;;;;26.01;39.50;99300.06;5055626;28;20051;-55
2022/08/22 08:10:13;;;;;;;16.65;3.45;;;;;;;27.11;37.81;99306.47;5055827;28;20033;-55
2022/08/22 08:12:40;;;;;;;18.75;4.18;;;;;;;27.77;37.24;99307.00;5057831;28;20021;-55
2022/08/22 08:15:08;;;;;;;22.73;4.38;;;;;;;28.70;35.39;99295.38;5051072;28;20024;-55
2022/08/22 08:17:34;;;;;;;30.60;5.00;;;;;;;28.42;35.64;99304.63;5049792;28;20025;-55
2022/08/22 08:20:07;;;;;;;28.95;4.50;;;;;;;28.97;35.24;99297.13;5099922;28;20023;-54
2022/08/22 08:22:33;;;;;;;16.45;4.07;;;;;;;28.67;35.11;99302.44;5055007;28;20032;-55
2022/08/22 08:24:58;;;;;;;18.95;3.72;;;;;;;29.41;34.32;99301.53;5054543;28;20029;-56
2022/08/22 08:30:17;;;;;;;19.77;4.07;;;;;;;29.88;33.27;99298.41;5050991;28;20140;-55
2022/08/22 08:32:46;;;;;;;21.50;4.30;;;;;;;29.46;34.71;99301.22;5068294;28;20115;-55
2022/08/22 08:35:22;;;;;;;16.70;4.10;;;;;;;30.14;33.07;99294.06;5063358;28;20514;-55
2022/08/22 08:37:54;;;;;;;28.85;4.50;;;;;;;29.97;33.17;99294.59;5051274;28;20231;-55
2022/08/22 08:40:31;;;;;;;20.65;4.00;;;;;;;30.19;33.10;99296.50;5063044;28;20123;-55
2022/08/22 08:43:28;;;;;;;20.98;3.95;;;;;;;30.60;32.50;99293.91;5063866;28;20383;-55
2022/08/22 08:46:36;;;;;;;20.85;4.10;;;;;;;27.01;37.78;99294.03;5061346;28;20047;-54
2022/08/22 08:49:08;;;;;;;23.87;4.50;;;;;;;26.09;39.96;99290.09;5072600;28;20060;-55
2022/08/22 08:51:52;;;;;;;16.70;3.92;;;;;;;26.84;38.38;99278.63;5069097;28;20105;-55
2022/08/22 08:54:54;;;;;;;26.80;4.18;;;;;;;27.35;37.54;99283.53;5069112;28;20067;-54
2022/08/22 08:57:34;;;;;;;16.52;3.83;;;;;;;27.76;37.54;99270.41;5068800;28;20356;-54
2022/08/22 09:00:19;;;;;;;14.68;3.72;;;;;;;26.88;38.24;99270.47;5069558;28;20043;-53
2022/08/22 09:03:00;;;;;;;20.85;4.07;;;;;;;28.61;35.80;99276.31;5068270;28;20047;-54
2022/08/22 09:05:42;;;;;;;15.52;3.67;;;;;;;28.57;35.86;99264.41;5058672;28;20041;-53
2022/08/22 09:08:21;;;;;;;17.80;3.83;;;;;;;28.53;35.94;99264.34;5056862;28;20074;-55
2022/08/22 09:11:14;;;;;;;23.13;4.22;;;;;;;27.53;38.27;99261.97;5063873;28;20021;-55
2022/08/22 09:13:58;;;;;;;25.25;3.75;;;;;;;28.95;35.67;99258.06;5068909;28;20502;-55
2022/08/22 09:16:41;;;;;;;22.08;3.97;;;;;;;28.92;35.45;99263.53;5051903;28;20144;-55
2022/08/22 09:19:22;;;;;;;16.42;3.72;;;;;;;28.24;36.24;99259.34;5087068;28;20055;-55
2022/08/22 09:22:03;;;;;;;30.05;4.07;;;;;;;28.22;36.47;99256.94;5058120;28;20495;-53
2022/08/22 09:24:47;;;;;;;35.30;4.65;;;;;;;28.64;35.87;99258.25;5064025;28;20028;-54
2022/08/22 09:27:17;;;;;;;19.80;3.63;;;;;;;27.01;38.27;99254.69;5055978;28;20128;-54
2022/08/22 09:30:10;;;;;;;30.48;4.18;;;;;;;28.14;36.86;99246.94;5100406;28;20403;-53
2022/08/22 09:32:42;;;;;;;23.08;4.10;;;;;;;28.44;36.43;99252.69;5063454;28;20443;-54
2022/08/22 09:35:19;;;;;;;26.70;4.55;;;;;;;28.26;37.50;99243.25;5063086;28;20032;-54
2022/08/22 09:38:00;;;;;;;26.98;4.53;;;;;;;29.81;34.39;99242.25;5061215;28;20120;-54
2022/08/22 09:40:27;;;;;;;25.27;4.30;;;;;;;30.04;34.13;99244.97;5058231;28;20033;-55
2022/08/22 09:43:06;;;;;;;28.35;4.38;;;;;;;29.37;34.76;99240.72;5054558;28;20029;-54
2022/08/22 09:45:50;;;;;;;24.33;4.03;;;;;;;28.40;36.42;99238.03;5068294;28;20135;-55
2022/08/22 09:48:36;;;;;;;27.10;4.15;;;;;;;29.55;34.77;99240.22;5068732;28;20055;-55
2022/08/22 09:51:25;;;;;;;25.98;4.30;;;;;;;30.23;33.17;99239.31;5059104;28;20561;-56
2022/08/22 09:54:11;;;;;;;32.30;4.60;;;;;;;30.69;33.43;99241.88;5051121;28;20116;-56
2022/08/22 09:56:48;;;;;;;24.90;4.70;;;;;;;30.62;32.43;99241.00;5065366;28;20031;-55
2022/08/22 09:59:30;;;;;;;17.83;4.35;;;;;;;30.49;32.63;99235.72;5062401;28;20459;-55
2022/08/22 10:02:09;;;;;;;28.70;4.65;;;;;;;30.03;33.51;99221.25;5068849;28;20086;-55
2022/08/22 10:04:45;;;;;;;23.80;4.13;;;;;;;30.27;33.40;99231.09;5052547;28;20037;-57
2022/08/22 10:07:34;;;;;;;17.15;4.00;;;;;;;29.52;33.88;99225.19;5063258;28;20467;-55
2022/08/22 10:10:28;;;;;;;18.95;4.18;;;;;;;30.23;34.06;99225.50;5061623;28;20120;-55
2022/08/22 10:13:07;;;;;;;18.30;4.28;;;;;;;28.59;34.93;99224.28;5054587;28;20033;-55
2022/08/22 10:15:36;;;;;;;20.65;4.28;;;;;;;28.84;34.99;99221.22;5068225;28;20017;-57
2022/08/22 10:18:36;;;;;;;18.60;4.45;;;;;;;29.91;33.64;99214.00;5069107;28;20033;-60
2022/08/22 10:21:05;;;;;;;15.23;3.97;;;;;;;29.04;34.12;99210.94;5071633;28;20043;-55
2022/08/22 10:23:43;;;;;;;18.30;4.07;;;;;;;30.08;33.56;99207.13;5066250;28;20051;-55
2022/08/22 10:26:19;;;;;;;16.63;3.70;;;;;;;30.09;32.62;99198.44;5060352;28;20112;-55
2022/08/22 10:28:54;;;;;;;15.55;3.80;;;;;;;31.51;30.94;99203.19;5069300;28;20491;-55
2022/08/22 10:31:27;;;;;;;12.02;3.50;;;;;;;31.31;30.75;99201.81;5048596;28;20356;-55
2022/08/22 10:33:59;;;;;;;14.85;4.00;;;;;;;30.11;32.28;99192.56;5064808;28;20044;-55
2022/08/22 10:36:48;;;;;;;12.73;3.78;;;;;;;30.87;31.88;99199.81;5064748;28;20472;-56
2022/08/22 10:39:25;;;;;;;14.20;3.65;;;;;;;31.74;29.84;99193.84;5069558;28;20060;-55
2022/08/22 10:42:23;;;;;;;12.30;3.40;;;;;;;31.48;29.44;99194.88;5068074;28;20033;-55
2022/08/22 10:45:21;;;;;;;13.80;3.80;;;;;;;31.39;30.74;99195.19;5069691;28;20078;-56
2022/08/22 10:47:49;;;;;;;10.32;3.80;;;;;;;29.61;32.37;99189.06;5068875;28;20059;-55
2022/08/22 10:50:17;;;;;;;13.00;3.97;;;;;;;30.48;31.13;99189.09;5071164;28;20037;-55
2022/08/22 10:52:48;;;;;;;11.45;3.83;;;;;;;30.47;31.69;99182.75;5102043;28;20025;-54
2022/08/22 10:55:21;;;;;;;8.50;3.33;;;;;;;29.96;32.66;99182.50;5084873;28;20581;-55
2022/08/22 10:57:49;;;;;;;14.77;3.83;;;;;;;29.93;32.17;99181.28;5058587;28;20398;-55
2022/08/22 11:00:33;;;;;;;9.53;3.73;;;;;;;30.37;31.63;99179.88;5061314;28;20036;-55
2022/08/22 11:03:07;;;;;;;10.52;3.50;;;;;;;29.56;32.56;99181.09;5059435;28;20421;-55
2022/08/22 11:05:35;;;;;;;12.55;3.85;;;;;;;30.63;30.46;99178.97;5070632;28;20059;-55
2022/08/22 11:08:17;;;;;;;11.13;3.67;;;;;;;30.77;30.53;99175.56;5070987;28;20048;-55
2022/08/22 11:11:00;;;;;;;11.05;4.13;;;;;;;29.73;31.98;99164.03;5062975;28;20040;-55
2022/08/22 11:13:39;;;;;;;12.80;4.45;;;;;;;29.95;32.08;99158.78;5058410;28;20025;-55
2022/08/22 11:16:08;;;;;;;7.53;3.78;;;;;;;30.34;31.21;99159.31;5060946;28;20542;-55
2022/08/22 11:18:56;;;;;;;7.90;3.30;;;;;;;30.02;31.71;99153.34;5070901;28;20055;-55
2022/08/22 11:21:42;;;;;;;10.38;4.10;;;;;;;28.73;32.99;99149.34;5069309;28;20395;-54
2022/08/22 11:24:16;;;;;;;11.32;4.18;;;;;;;27.15;34.88;99149.75;5074126;28;20032;-55
2022/08/22 11:26:44;;;;;;;12.25;3.70;;;;;;;28.99;32.47;99151.34;5059166;28;20077;-55
2022/08/22 11:29:23;;;;;;;13.65;4.20;;;;;;;28.81;32.54;99153.81;5060505;28;20025;-55
2022/08/22 11:31:48;;;;;;;16.23;4.40;;;;;;;29.99;31.03;99146.59;5064394;28;20044;-55
2022/08/22 11:34:38;;;;;;;7.93;3.67;;;;;;;30.45;30.25;99154.72;5071094;28;20442;-54
2022/08/22 11:37:21;;;;;;;10.38;4.20;;;;;;;28.56;33.46;99147.03;5063129;28;20016;-54
2022/08/22 11:40:14;;;;;;;9.68;3.80;;;;;;;28.80;32.65;99140.38;5054575;28;20025;-54
2022/08/22 11:42:43;;;;;;;8.63;4.22;;;;;;;30.96;30.41;99144.97;5059044;28;20112;-55
2022/08/22 11:45:08;;;;;;;7.70;3.63;;;;;;;31.52;29.55;99141.06;5070324;28;20592;-55
2022/08/22 11:47:44;;;;;;;11.82;3.83;;;;;;;31.42;29.15;99139.03;5068946;28;20041;-55
2022/08/22 11:50:36;;;;;;;8.15;3.42;;;;;;;30.69;30.19;99136.00;5099496;28;20425;-55
2022/08/22 11:53:20;;;;;;;9.38;3.70;;;;;;;29.38;31.47;99137.44;5056785;28;20033;-54
2022/08/22 11:55:56;;;;;;;7.78;3.63;;;;;;;29.77;31.42;99126.19;5065684;28;20112;-55
2022/08/22 11:58:50;;;;;;;6.60;3.42;;;;;;;29.46;30.87;99128.09;5081717;28;20045;-55
2022/08/22 12:01:18;;;;;;;8.02;3.90;;;;;;;28.71;32.34;99124.06;5050679;28;20039;-54
2022/08/22 12:03:50;;;;;;;10.57;3.60;;;;;;;28.74;32.02;99128.06;5103033;28;20138;-53
2022/08/22 12:06:54;;;;;;;9.82;4.18;;;;;;;30.38;30.07;99117.88;5069601;28;20052;-55
2022/08/22 12:09:25;;;;;;;9.85;3.72;;;;;;;31.26;29.25;99119.13;5064634;28;20072;-54
2022/08/22 12:11:59;;;;;;;7.75;3.83;;;;;;;30.63;29.61;99120.91;5054823;28;20489;-54
2022/08/22 12:14:49;;;;;;;13.75;4.07;;;;;;;30.41;30.29;99119.91;5060181;28;20028;-55
2022/08/22 12:17:23;;;;;;;11.45;3.97;;;;;;;31.30;29.00;99117.16;5061479;28;20044;-53
2022/08/22 12:19:59;;;;;;;7.70;3.50;;;;;;;31.21;29.29;99117.50;5059726;28;20048;-54
2022/08/22 12:22:51;;;;;;;10.70;3.63;;;;;;;30.57;29.87;99116.91;5068625;28;20478;-55
2022/08/22 12:25:38;;;;;;;8.00;3.58;;;;;;;31.24;28.69;99110.41;5068805;28;20035;-54